sensor_id;sensor_type;location;lat;lon;timestamp;temperature;humidity
52016;DHT22;38032;53.326;6.472;2024-03-08T00:00:41;3.30;99.90
52016;DHT22;38032;53.326;6.472;2024-03-08T00:03:08;3.30;99.90
52016;DHT22;38032;53.326;6.472;2024-03-08T00:05:36;3.20;99.90
52016;DHT22;38032;53.326;6.472;2024-03-08T00:08:05;3.30;99.90
52016;DHT22;38032;53.326;6.472;2024-03-08T00:10:32;3.30;99.90
52016;DHT22;38032;53.326;6.472;2024-03-08T00:12:58;3.20;99.90
52016;DHT22;38032;53.326;6.472;2024-03-08T00:15:23;3.20;99.90
52016;DHT22;38032;53.326;6.472;2024-03-08T00:17:49;3.20;99.90
52016;DHT22;38032;53.326;6.472;2024-03-08T00:20:16;3.20;99.90
52016;DHT22;38032;53.326;6.472;2024-03-08T00:22:43;3.20;99.90
52016;DHT22;38032;53.326;6.472;2024-03-08T00:25:09;3.20;99.90
52016;DHT22;38032;53.326;6.472;2024-03-08T00:27:36;3.10;99.90
52016;DHT22;38032;53.326;6.472;2024-03-08T00:30:02;3.20;99.90
52016;DHT22;38032;53.326;6.472;2024-03-08T00:32:28;3.10;99.90
52016;DHT22;38032;53.326;6.472;2024-03-08T00:34:54;3.10;99.90
52016;DHT22;38032;53.326;6.472;2024-03-08T00:37:20;3.10;99.90
52016;DHT22;38032;53.326;6.472;2024-03-08T00:39:48;3.20;99.90
52016;DHT22;38032;53.326;6.472;2024-03-08T00:42:16;3.20;99.90
52016;DHT22;38032;53.326;6.472;2024-03-08T00:44:42;3.10;99.90
52016;DHT22;38032;53.326;6.472;2024-03-08T00:47:08;3.10;99.90
52016;DHT22;38032;53.326;6.472;2024-03-08T00:49:34;3.10;99.90
52016;DHT22;38032;53.326;6.472;2024-03-08T00:52:00;3.10;99.90
52016;DHT22;38032;53.326;6.472;2024-03-08T00:54:26;3.10;99.90
52016;DHT22;38032;53.326;6.472;2024-03-08T00:56:52;3.10;99.90
52016;DHT22;38032;53.326;6.472;2024-03-08T00:59:17;3.10;99.90
52016;DHT22;38032;53.326;6.472;2024-03-08T01:01:43;3.10;99.90
52016;DHT22;38032;53.326;6.472;2024-03-08T01:04:10;3.00;99.90
52016;DHT22;38032;53.326;6.472;2024-03-08T01:06:35;3.00;99.90
52016;DHT22;38032;53.326;6.472;2024-03-08T01:09:01;2.90;99.90
52016;DHT22;38032;53.326;6.472;2024-03-08T01:11:27;2.90;99.90
52016;DHT22;38032;53.326;6.472;2024-03-08T01:13:54;2.90;99.90
52016;DHT22;38032;53.326;6.472;2024-03-08T01:16:20;2.90;99.90
52016;DHT22;38032;53.326;6.472;2024-03-08T01:18:47;2.90;99.90
52016;DHT22;38032;53.326;6.472;2024-03-08T01:21:13;2.90;99.90
52016;DHT22;38032;53.326;6.472;2024-03-08T01:23:39;2.80;99.90
52016;DHT22;38032;53.326;6.472;2024-03-08T01:26:05;2.80;99.90
52016;DHT22;38032;53.326;6.472;2024-03-08T01:28:32;2.80;99.90
52016;DHT22;38032;53.326;6.472;2024-03-08T01:30:59;2.70;99.90
52016;DHT22;38032;53.326;6.472;2024-03-08T01:33:26;2.70;99.90
52016;DHT22;38032;53.326;6.472;2024-03-08T01:35:53;2.70;99.90
52016;DHT22;38032;53.326;6.472;2024-03-08T01:38:19;2.70;99.90
52016;DHT22;38032;53.326;6.472;2024-03-08T01:40:47;2.60;99.90
52016;DHT22;38032;53.326;6.472;2024-03-08T01:43:22;2.70;99.90
52016;DHT22;38032;53.326;6.472;2024-03-08T01:45:48;2.70;99.90
52016;DHT22;38032;53.326;6.472;2024-03-08T01:48:15;2.70;99.90
52016;DHT22;38032;53.326;6.472;2024-03-08T01:50:42;2.70;99.90
52016;DHT22;38032;53.326;6.472;2024-03-08T01:53:08;2.70;99.90
52016;DHT22;38032;53.326;6.472;2024-03-08T01:55:36;2.70;99.90
52016;DHT22;38032;53.326;6.472;2024-03-08T01:58:04;2.60;99.90
52016;DHT22;38032;53.326;6.472;2024-03-08T02:00:31;2.60;99.90
52016;DHT22;38032;53.326;6.472;2024-03-08T02:02:57;2.60;99.90
52016;DHT22;38032;53.326;6.472;2024-03-08T02:05:23;2.50;99.90
52016;DHT22;38032;53.326;6.472;2024-03-08T02:07:49;2.50;99.90
52016;DHT22;38032;53.326;6.472;2024-03-08T02:10:15;2.50;99.90
52016;DHT22;38032;53.326;6.472;2024-03-08T02:12:41;2.50;99.90
52016;DHT22;38032;53.326;6.472;2024-03-08T02:15:07;2.50;99.90
52016;DHT22;38032;53.326;6.472;2024-03-08T02:17:33;2.40;99.90
52016;DHT22;38032;53.326;6.472;2024-03-08T02:19:59;2.50;99.90
52016;DHT22;38032;53.326;6.472;2024-03-08T02:22:28;2.50;99.90
52016;DHT22;38032;53.326;6.472;2024-03-08T02:24:55;2.40;99.90
52016;DHT22;38032;53.326;6.472;2024-03-08T02:27:24;2.40;99.90
52016;DHT22;38032;53.326;6.472;2024-03-08T02:29:58;2.40;99.90
52016;DHT22;38032;53.326;6.472;2024-03-08T02:32:24;2.30;99.90
52016;DHT22;38032;53.326;6.472;2024-03-08T02:34:50;2.30;99.90
52016;DHT22;38032;53.326;6.472;2024-03-08T02:37:17;2.20;99.90
52016;DHT22;38032;53.326;6.472;2024-03-08T02:39:43;2.20;99.90
52016;DHT22;38032;53.326;6.472;2024-03-08T02:42:09;2.20;99.90
52016;DHT22;38032;53.326;6.472;2024-03-08T02:44:35;2.20;99.90
52016;DHT22;38032;53.326;6.472;2024-03-08T02:47:00;2.20;99.90
52016;DHT22;38032;53.326;6.472;2024-03-08T02:49:26;2.10;99.90
52016;DHT22;38032;53.326;6.472;2024-03-08T02:51:53;2.10;99.90
52016;DHT22;38032;53.326;6.472;2024-03-08T02:54:19;2.10;99.90
52016;DHT22;38032;53.326;6.472;2024-03-08T02:56:46;2.10;99.90
52016;DHT22;38032;53.326;6.472;2024-03-08T02:59:13;2.20;99.90
52016;DHT22;38032;53.326;6.472;2024-03-08T03:01:39;2.20;99.90
52016;DHT22;38032;53.326;6.472;2024-03-08T03:04:05;2.20;99.90
52016;DHT22;38032;53.326;6.472;2024-03-08T03:06:30;2.20;99.90
52016;DHT22;38032;53.326;6.472;2024-03-08T03:08:57;2.20;99.90
52016;DHT22;38032;53.326;6.472;2024-03-08T03:11:23;2.20;99.90
52016;DHT22;38032;53.326;6.472;2024-03-08T03:13:49;2.20;99.90
52016;DHT22;38032;53.326;6.472;2024-03-08T03:16:19;2.20;99.90
52016;DHT22;38032;53.326;6.472;2024-03-08T03:18:46;2.20;99.90
52016;DHT22;38032;53.326;6.472;2024-03-08T03:21:13;2.20;99.90
52016;DHT22;38032;53.326;6.472;2024-03-08T03:23:40;2.20;99.90
52016;DHT22;38032;53.326;6.472;2024-03-08T03:26:06;2.20;99.90
52016;DHT22;38032;53.326;6.472;2024-03-08T03:28:33;2.20;99.90
52016;DHT22;38032;53.326;6.472;2024-03-08T03:30:59;2.10;99.90
52016;DHT22;38032;53.326;6.472;2024-03-08T03:33:25;2.10;99.90
52016;DHT22;38032;53.326;6.472;2024-03-08T03:35:51;2.10;99.90
52016;DHT22;38032;53.326;6.472;2024-03-08T03:38:18;2.10;99.90
52016;DHT22;38032;53.326;6.472;2024-03-08T03:40:45;2.00;99.90
52016;DHT22;38032;53.326;6.472;2024-03-08T03:43:11;2.00;99.90
52016;DHT22;38032;53.326;6.472;2024-03-08T03:45:38;2.00;99.90
52016;DHT22;38032;53.326;6.472;2024-03-08T03:48:06;2.00;99.90
52016;DHT22;38032;53.326;6.472;2024-03-08T03:50:34;2.00;99.90
52016;DHT22;38032;53.326;6.472;2024-03-08T03:53:00;1.90;99.90
52016;DHT22;38032;53.326;6.472;2024-03-08T03:55:27;1.90;99.90
52016;DHT22;38032;53.326;6.472;2024-03-08T03:57:54;1.40;99.90
52016;DHT22;38032;53.326;6.472;2024-03-08T04:00:20;1.90;99.90
52016;DHT22;38032;53.326;6.472;2024-03-08T04:02:46;1.90;99.90
52016;DHT22;38032;53.326;6.472;2024-03-08T04:05:12;1.90;99.90
52016;DHT22;38032;53.326;6.472;2024-03-08T04:07:39;1.90;99.90
52016;DHT22;38032;53.326;6.472;2024-03-08T04:10:06;1.80;99.90
52016;DHT22;38032;53.326;6.472;2024-03-08T04:12:33;1.80;99.90
52016;DHT22;38032;53.326;6.472;2024-03-08T04:14:59;1.80;99.90
52016;DHT22;38032;53.326;6.472;2024-03-08T04:17:25;1.80;99.90
52016;DHT22;38032;53.326;6.472;2024-03-08T04:19:51;1.70;99.90
52016;DHT22;38032;53.326;6.472;2024-03-08T04:22:18;1.70;99.90
52016;DHT22;38032;53.326;6.472;2024-03-08T04:24:44;1.70;99.90
52016;DHT22;38032;53.326;6.472;2024-03-08T04:27:10;1.60;99.90
52016;DHT22;38032;53.326;6.472;2024-03-08T04:29:36;1.60;99.90
52016;DHT22;38032;53.326;6.472;2024-03-08T04:32:03;1.60;99.90
52016;DHT22;38032;53.326;6.472;2024-03-08T04:34:30;1.60;99.90
52016;DHT22;38032;53.326;6.472;2024-03-08T04:36:57;1.60;99.90
52016;DHT22;38032;53.326;6.472;2024-03-08T04:39:24;1.60;99.90
52016;DHT22;38032;53.326;6.472;2024-03-08T04:41:50;1.50;99.90
52016;DHT22;38032;53.326;6.472;2024-03-08T04:44:17;1.60;99.90
52016;DHT22;38032;53.326;6.472;2024-03-08T04:46:43;1.60;99.90
52016;DHT22;38032;53.326;6.472;2024-03-08T04:49:09;1.60;99.90
52016;DHT22;38032;53.326;6.472;2024-03-08T04:51:37;1.60;99.90
52016;DHT22;38032;53.326;6.472;2024-03-08T04:54:03;1.60;99.90
52016;DHT22;38032;53.326;6.472;2024-03-08T04:56:30;1.50;99.90
52016;DHT22;38032;53.326;6.472;2024-03-08T04:58:56;1.60;99.90
52016;DHT22;38032;53.326;6.472;2024-03-08T05:01:22;1.50;99.90
52016;DHT22;38032;53.326;6.472;2024-03-08T05:03:47;1.50;99.90
52016;DHT22;38032;53.326;6.472;2024-03-08T05:06:16;1.50;99.90
52016;DHT22;38032;53.326;6.472;2024-03-08T05:08:42;1.50;99.90
52016;DHT22;38032;53.326;6.472;2024-03-08T05:11:08;1.50;99.90
52016;DHT22;38032;53.326;6.472;2024-03-08T05:13:35;1.40;99.90
52016;DHT22;38032;53.326;6.472;2024-03-08T05:16:00;1.40;99.90
52016;DHT22;38032;53.326;6.472;2024-03-08T05:18:26;1.40;99.90
52016;DHT22;38032;53.326;6.472;2024-03-08T05:20:54;1.40;99.90
52016;DHT22;38032;53.326;6.472;2024-03-08T05:23:20;1.40;99.90
52016;DHT22;38032;53.326;6.472;2024-03-08T05:25:46;1.40;99.90
52016;DHT22;38032;53.326;6.472;2024-03-08T05:28:13;1.40;99.90
52016;DHT22;38032;53.326;6.472;2024-03-08T05:30:39;1.40;99.90
52016;DHT22;38032;53.326;6.472;2024-03-08T05:33:05;1.40;99.90
52016;DHT22;38032;53.326;6.472;2024-03-08T05:35:31;1.40;99.90
52016;DHT22;38032;53.326;6.472;2024-03-08T05:37:58;1.40;99.90
52016;DHT22;38032;53.326;6.472;2024-03-08T05:40:23;1.30;99.90
52016;DHT22;38032;53.326;6.472;2024-03-08T05:42:49;1.30;99.90
52016;DHT22;38032;53.326;6.472;2024-03-08T05:45:15;1.30;99.90
52016;DHT22;38032;53.326;6.472;2024-03-08T05:47:41;1.30;99.90
52016;DHT22;38032;53.326;6.472;2024-03-08T05:50:08;1.30;99.90
52016;DHT22;38032;53.326;6.472;2024-03-08T05:52:36;1.30;99.90
52016;DHT22;38032;53.326;6.472;2024-03-08T05:55:04;1.30;99.90
52016;DHT22;38032;53.326;6.472;2024-03-08T05:57:33;1.30;99.90
52016;DHT22;38032;53.326;6.472;2024-03-08T05:59:58;1.30;99.90
52016;DHT22;38032;53.326;6.472;2024-03-08T06:02:24;1.30;99.90
52016;DHT22;38032;53.326;6.472;2024-03-08T06:04:50;1.30;99.90
52016;DHT22;38032;53.326;6.472;2024-03-08T06:07:16;1.30;99.90
52016;DHT22;38032;53.326;6.472;2024-03-08T06:09:43;1.40;99.90
52016;DHT22;38032;53.326;6.472;2024-03-08T06:12:11;1.40;99.90
52016;DHT22;38032;53.326;6.472;2024-03-08T06:14:37;1.40;99.90
52016;DHT22;38032;53.326;6.472;2024-03-08T06:17:04;1.40;99.90
52016;DHT22;38032;53.326;6.472;2024-03-08T06:19:32;1.40;99.90
52016;DHT22;38032;53.326;6.472;2024-03-08T06:21:59;1.50;99.90
52016;DHT22;38032;53.326;6.472;2024-03-08T06:24:28;1.50;99.90
52016;DHT22;38032;53.326;6.472;2024-03-08T06:26:53;1.50;99.90
52016;DHT22;38032;53.326;6.472;2024-03-08T06:29:19;1.60;99.90
52016;DHT22;38032;53.326;6.472;2024-03-08T06:31:45;1.60;99.90
52016;DHT22;38032;53.326;6.472;2024-03-08T06:34:11;1.70;99.90
52016;DHT22;38032;53.326;6.472;2024-03-08T06:36:37;1.80;99.90
52016;DHT22;38032;53.326;6.472;2024-03-08T06:39:03;1.90;99.90
52016;DHT22;38032;53.326;6.472;2024-03-08T06:41:35;2.00;99.90
52016;DHT22;38032;53.326;6.472;2024-03-08T06:44:01;2.20;99.90
52016;DHT22;38032;53.326;6.472;2024-03-08T06:46:27;2.30;99.90
52016;DHT22;38032;53.326;6.472;2024-03-08T06:48:53;2.40;99.90
52016;DHT22;38032;53.326;6.472;2024-03-08T06:51:19;2.60;99.90
52016;DHT22;38032;53.326;6.472;2024-03-08T06:53:45;2.80;99.90
52016;DHT22;38032;53.326;6.472;2024-03-08T06:56:11;3.00;99.90
52016;DHT22;38032;53.326;6.472;2024-03-08T06:58:37;2.90;99.90
52016;DHT22;38032;53.326;6.472;2024-03-08T07:01:03;2.90;99.90
52016;DHT22;38032;53.326;6.472;2024-03-08T07:03:33;2.90;99.90
52016;DHT22;38032;53.326;6.472;2024-03-08T07:05:59;2.90;99.90
52016;DHT22;38032;53.326;6.472;2024-03-08T07:08:25;2.90;99.90
52016;DHT22;38032;53.326;6.472;2024-03-08T07:10:53;2.90;99.90
52016;DHT22;38032;53.326;6.472;2024-03-08T07:13:19;2.90;99.90
52016;DHT22;38032;53.326;6.472;2024-03-08T07:15:45;2.90;99.90
52016;DHT22;38032;53.326;6.472;2024-03-08T07:18:11;3.00;99.90
52016;DHT22;38032;53.326;6.472;2024-03-08T07:20:41;3.20;99.90
52016;DHT22;38032;53.326;6.472;2024-03-08T07:23:07;3.50;99.90
52016;DHT22;38032;53.326;6.472;2024-03-08T07:25:34;3.80;99.90
52016;DHT22;38032;53.326;6.472;2024-03-08T07:28:00;3.80;99.90
52016;DHT22;38032;53.326;6.472;2024-03-08T07:30:27;3.80;99.90
52016;DHT22;38032;53.326;6.472;2024-03-08T07:33:09;3.80;99.90
52016;DHT22;38032;53.326;6.472;2024-03-08T07:35:41;4.10;99.90
52016;DHT22;38032;53.326;6.472;2024-03-08T07:38:09;4.10;99.90
52016;DHT22;38032;53.326;6.472;2024-03-08T07:40:38;4.30;99.90
52016;DHT22;38032;53.326;6.472;2024-03-08T07:43:07;4.30;99.90
52016;DHT22;38032;53.326;6.472;2024-03-08T07:45:33;4.40;99.90
52016;DHT22;38032;53.326;6.472;2024-03-08T07:47:58;4.50;99.90
52016;DHT22;38032;53.326;6.472;2024-03-08T07:50:24;4.50;99.90
52016;DHT22;38032;53.326;6.472;2024-03-08T07:52:50;4.70;99.90
52016;DHT22;38032;53.326;6.472;2024-03-08T07:55:16;5.00;99.90
52016;DHT22;38032;53.326;6.472;2024-03-08T07:57:42;5.40;99.90
52016;DHT22;38032;53.326;6.472;2024-03-08T08:00:08;5.50;99.90
52016;DHT22;38032;53.326;6.472;2024-03-08T08:02:35;5.60;99.90
52016;DHT22;38032;53.326;6.472;2024-03-08T08:05:01;6.00;99.90
52016;DHT22;38032;53.326;6.472;2024-03-08T08:07:27;6.60;99.90
52016;DHT22;38032;53.326;6.472;2024-03-08T08:09:53;7.10;99.90
52016;DHT22;38032;53.326;6.472;2024-03-08T08:12:19;7.50;99.90
52016;DHT22;38032;53.326;6.472;2024-03-08T08:14:46;7.90;99.90
52016;DHT22;38032;53.326;6.472;2024-03-08T08:17:12;8.00;99.90
52016;DHT22;38032;53.326;6.472;2024-03-08T08:19:40;8.10;99.90
52016;DHT22;38032;53.326;6.472;2024-03-08T08:22:06;8.20;99.90
52016;DHT22;38032;53.326;6.472;2024-03-08T08:24:34;8.50;99.90
52016;DHT22;38032;53.326;6.472;2024-03-08T08:27:03;8.50;99.90
52016;DHT22;38032;53.326;6.472;2024-03-08T08:29:30;8.90;99.90
52016;DHT22;38032;53.326;6.472;2024-03-08T08:31:58;9.50;99.90
52016;DHT22;38032;53.326;6.472;2024-03-08T08:34:25;10.10;99.90
52016;DHT22;38032;53.326;6.472;2024-03-08T08:36:52;10.90;99.90
52016;DHT22;38032;53.326;6.472;2024-03-08T08:39:19;11.60;99.90
52016;DHT22;38032;53.326;6.472;2024-03-08T08:41:45;12.10;99.50
52016;DHT22;38032;53.326;6.472;2024-03-08T08:44:10;12.60;97.40
52016;DHT22;38032;53.326;6.472;2024-03-08T08:46:38;13.20;95.70
52016;DHT22;38032;53.326;6.472;2024-03-08T08:49:04;13.70;93.40
52016;DHT22;38032;53.326;6.472;2024-03-08T08:51:32;13.70;91.20
52016;DHT22;38032;53.326;6.472;2024-03-08T08:53:59;13.70;90.60
52016;DHT22;38032;53.326;6.472;2024-03-08T08:56:25;13.90;90.20
52016;DHT22;38032;53.326;6.472;2024-03-08T08:58:52;14.20;89.20
52016;DHT22;38032;53.326;6.472;2024-03-08T09:01:19;14.30;85.00
52016;DHT22;38032;53.326;6.472;2024-03-08T09:03:45;14.40;82.60
52016;DHT22;38032;53.326;6.472;2024-03-08T09:06:12;14.10;79.20
52016;DHT22;38032;53.326;6.472;2024-03-08T09:08:40;14.00;78.80
52016;DHT22;38032;53.326;6.472;2024-03-08T09:11:05;13.80;78.60
52016;DHT22;38032;53.326;6.472;2024-03-08T09:13:32;13.70;77.30
52016;DHT22;38032;53.326;6.472;2024-03-08T09:15:59;13.60;77.00
52016;DHT22;38032;53.326;6.472;2024-03-08T09:18:25;13.60;76.50
52016;DHT22;38032;53.326;6.472;2024-03-08T09:20:51;13.60;75.40
52016;DHT22;38032;53.326;6.472;2024-03-08T09:23:20;13.70;74.80
52016;DHT22;38032;53.326;6.472;2024-03-08T09:25:46;13.90;74.50
52016;DHT22;38032;53.326;6.472;2024-03-08T09:28:12;13.80;73.50
52016;DHT22;38032;53.326;6.472;2024-03-08T09:30:38;14.10;74.30
52016;DHT22;38032;53.326;6.472;2024-03-08T09:33:05;14.30;73.00
52016;DHT22;38032;53.326;6.472;2024-03-08T09:35:32;14.40;72.30
52016;DHT22;38032;53.326;6.472;2024-03-08T09:37:58;14.80;71.90
52016;DHT22;38032;53.326;6.472;2024-03-08T09:40:23;15.10;71.40
52016;DHT22;38032;53.326;6.472;2024-03-08T09:42:51;15.60;71.30
52016;DHT22;38032;53.326;6.472;2024-03-08T09:45:20;15.80;70.00
52016;DHT22;38032;53.326;6.472;2024-03-08T09:47:47;16.10;69.60
52016;DHT22;38032;53.326;6.472;2024-03-08T09:50:14;16.40;69.00
52016;DHT22;38032;53.326;6.472;2024-03-08T09:52:42;16.60;68.10
52016;DHT22;38032;53.326;6.472;2024-03-08T09:55:10;16.80;67.50
52016;DHT22;38032;53.326;6.472;2024-03-08T09:57:38;16.80;66.80
52016;DHT22;38032;53.326;6.472;2024-03-08T10:00:05;16.70;66.20
52016;DHT22;38032;53.326;6.472;2024-03-08T10:02:45;16.50;66.00
52016;DHT22;38032;53.326;6.472;2024-03-08T10:05:12;16.30;66.10
52016;DHT22;38032;53.326;6.472;2024-03-08T10:07:39;16.30;66.70
52016;DHT22;38032;53.326;6.472;2024-03-08T10:10:06;16.30;66.50
52016;DHT22;38032;53.326;6.472;2024-03-08T10:12:34;15.90;65.70
52016;DHT22;38032;53.326;6.472;2024-03-08T10:15:00;15.60;65.90
52016;DHT22;38032;53.326;6.472;2024-03-08T10:17:27;15.50;66.30
52016;DHT22;38032;53.326;6.472;2024-03-08T10:19:57;15.50;66.50
52016;DHT22;38032;53.326;6.472;2024-03-08T10:22:25;15.60;66.80
52016;DHT22;38032;53.326;6.472;2024-03-08T10:24:51;15.50;66.30
52016;DHT22;38032;53.326;6.472;2024-03-08T10:27:17;15.20;66.50
52016;DHT22;38032;53.326;6.472;2024-03-08T10:29:47;15.20;66.50
52016;DHT22;38032;53.326;6.472;2024-03-08T10:32:13;15.20;66.40
52016;DHT22;38032;53.326;6.472;2024-03-08T10:34:39;15.00;66.40
52016;DHT22;38032;53.326;6.472;2024-03-08T10:37:13;15.00;66.90
52016;DHT22;38032;53.326;6.472;2024-03-08T10:39:48;14.90;65.50
52016;DHT22;38032;53.326;6.472;2024-03-08T10:42:24;15.00;65.90
52016;DHT22;38032;53.326;6.472;2024-03-08T10:45:06;15.10;66.30
52016;DHT22;38032;53.326;6.472;2024-03-08T10:47:40;14.90;65.20
52016;DHT22;38032;53.326;6.472;2024-03-08T10:50:11;14.90;66.60
52016;DHT22;38032;53.326;6.472;2024-03-08T10:52:43;14.80;66.40
52016;DHT22;38032;53.326;6.472;2024-03-08T10:55:10;14.70;67.00
52016;DHT22;38032;53.326;6.472;2024-03-08T10:57:38;14.50;66.90
52016;DHT22;38032;53.326;6.472;2024-03-08T11:00:06;14.40;67.90
52016;DHT22;38032;53.326;6.472;2024-03-08T11:02:35;14.40;67.60
52016;DHT22;38032;53.326;6.472;2024-03-08T11:05:03;14.40;67.80
52016;DHT22;38032;53.326;6.472;2024-03-08T11:07:33;14.10;67.70
52016;DHT22;38032;53.326;6.472;2024-03-08T11:10:04;14.30;68.70
52016;DHT22;38032;53.326;6.472;2024-03-08T11:12:36;14.20;68.70
52016;DHT22;38032;53.326;6.472;2024-03-08T11:15:10;13.90;69.10
52016;DHT22;38032;53.326;6.472;2024-03-08T11:20:10;13.90;69.70
52016;DHT22;38032;53.326;6.472;2024-03-08T11:22:42;13.90;70.60
52016;DHT22;38032;53.326;6.472;2024-03-08T11:25:32;13.80;70.50
52016;DHT22;38032;53.326;6.472;2024-03-08T11:28:13;13.60;70.70
52016;DHT22;38032;53.326;6.472;2024-03-08T11:30:47;13.50;69.70
52016;DHT22;38032;53.326;6.472;2024-03-08T11:33:35;13.20;70.50
52016;DHT22;38032;53.326;6.472;2024-03-08T11:38:41;13.00;70.70
52016;DHT22;38032;53.326;6.472;2024-03-08T11:41:07;12.90;70.90
52016;DHT22;38032;53.326;6.472;2024-03-08T11:43:34;12.80;70.80
52016;DHT22;38032;53.326;6.472;2024-03-08T11:46:09;12.60;82.10
52016;DHT22;38032;53.326;6.472;2024-03-08T11:48:35;12.50;71.90
52016;DHT22;38032;53.326;6.472;2024-03-08T11:51:02;12.30;72.40
52016;DHT22;38032;53.326;6.472;2024-03-08T11:53:29;12.20;71.80
52016;DHT22;38032;53.326;6.472;2024-03-08T11:55:56;12.10;72.40
52016;DHT22;38032;53.326;6.472;2024-03-08T11:58:30;11.80;72.20
52016;DHT22;38032;53.326;6.472;2024-03-08T12:01:03;11.80;73.10
52016;DHT22;38032;53.326;6.472;2024-03-08T12:03:30;11.80;73.40
52016;DHT22;38032;53.326;6.472;2024-03-08T12:06:00;11.70;73.50
52016;DHT22;38032;53.326;6.472;2024-03-08T12:08:26;11.60;73.60
52016;DHT22;38032;53.326;6.472;2024-03-08T12:10:54;11.40;77.20
52016;DHT22;38032;53.326;6.472;2024-03-08T12:13:27;11.30;73.70
52016;DHT22;38032;53.326;6.472;2024-03-08T12:15:59;11.20;73.80
52016;DHT22;38032;53.326;6.472;2024-03-08T12:18:26;11.20;74.20
52016;DHT22;38032;53.326;6.472;2024-03-08T12:21:04;11.10;74.60
52016;DHT22;38032;53.326;6.472;2024-03-08T12:23:34;11.10;94.70
52016;DHT22;38032;53.326;6.472;2024-03-08T12:26:11;10.80;75.50
52016;DHT22;38032;53.326;6.472;2024-03-08T12:28:40;10.70;77.10
52016;DHT22;38032;53.326;6.472;2024-03-08T12:31:07;10.60;78.00
52016;DHT22;38032;53.326;6.472;2024-03-08T12:33:50;10.60;78.10
52016;DHT22;38032;53.326;6.472;2024-03-08T12:36:17;10.60;78.20
52016;DHT22;38032;53.326;6.472;2024-03-08T12:38:44;10.50;78.40
52016;DHT22;38032;53.326;6.472;2024-03-08T12:41:14;10.30;79.70
52016;DHT22;38032;53.326;6.472;2024-03-08T12:43:40;10.20;80.70
52016;DHT22;38032;53.326;6.472;2024-03-08T12:46:07;10.20;81.30
52016;DHT22;38032;53.326;6.472;2024-03-08T12:48:35;10.20;81.70
52016;DHT22;38032;53.326;6.472;2024-03-08T12:51:06;10.20;82.30
52016;DHT22;38032;53.326;6.472;2024-03-08T12:53:33;10.20;82.80
52016;DHT22;38032;53.326;6.472;2024-03-08T12:55:59;10.20;83.10
52016;DHT22;38032;53.326;6.472;2024-03-08T12:58:25;10.20;83.40
52016;DHT22;38032;53.326;6.472;2024-03-08T13:00:52;10.20;82.90
52016;DHT22;38032;53.326;6.472;2024-03-08T13:03:18;10.20;83.70
52016;DHT22;38032;53.326;6.472;2024-03-08T13:05:43;10.20;84.00
52016;DHT22;38032;53.326;6.472;2024-03-08T13:08:09;10.20;84.40
52016;DHT22;38032;53.326;6.472;2024-03-08T13:10:40;10.20;85.70
52016;DHT22;38032;53.326;6.472;2024-03-08T13:13:06;10.20;85.80
52016;DHT22;38032;53.326;6.472;2024-03-08T13:15:31;10.10;85.80
52016;DHT22;38032;53.326;6.472;2024-03-08T13:17:59;10.20;86.50
52016;DHT22;38032;53.326;6.472;2024-03-08T13:20:25;10.10;86.10
52016;DHT22;38032;53.326;6.472;2024-03-08T13:22:54;10.00;85.50
52016;DHT22;38032;53.326;6.472;2024-03-08T13:25:20;10.00;85.40
52016;DHT22;38032;53.326;6.472;2024-03-08T13:27:46;10.00;85.90
52016;DHT22;38032;53.326;6.472;2024-03-08T13:30:13;9.80;86.40
52016;DHT22;38032;53.326;6.472;2024-03-08T13:32:41;9.80;86.10
52016;DHT22;38032;53.326;6.472;2024-03-08T13:35:10;9.80;86.40
52016;DHT22;38032;53.326;6.472;2024-03-08T13:37:50;9.80;86.30
52016;DHT22;38032;53.326;6.472;2024-03-08T13:40:17;10.00;87.00
52016;DHT22;38032;53.326;6.472;2024-03-08T13:42:47;9.90;87.60
52016;DHT22;38032;53.326;6.472;2024-03-08T13:45:14;9.90;87.70
52016;DHT22;38032;53.326;6.472;2024-03-08T13:47:43;9.90;88.20
52016;DHT22;38032;53.326;6.472;2024-03-08T13:50:10;10.00;88.00
52016;DHT22;38032;53.326;6.472;2024-03-08T13:52:38;9.90;87.50
52016;DHT22;38032;53.326;6.472;2024-03-08T13:55:06;10.00;87.50
52016;DHT22;38032;53.326;6.472;2024-03-08T13:57:32;9.90;87.90
52016;DHT22;38032;53.326;6.472;2024-03-08T13:59:59;9.80;87.40
52016;DHT22;38032;53.326;6.472;2024-03-08T14:02:25;9.80;87.30
52016;DHT22;38032;53.326;6.472;2024-03-08T14:04:54;9.70;87.20
52016;DHT22;38032;53.326;6.472;2024-03-08T14:07:21;9.60;87.30
52016;DHT22;38032;53.326;6.472;2024-03-08T14:09:49;9.60;88.10
52016;DHT22;38032;53.326;6.472;2024-03-08T14:12:15;9.60;88.00
52016;DHT22;38032;53.326;6.472;2024-03-08T14:14:41;9.60;87.50
52016;DHT22;38032;53.326;6.472;2024-03-08T14:17:10;9.50;87.60
52016;DHT22;38032;53.326;6.472;2024-03-08T14:19:37;9.50;88.20
52016;DHT22;38032;53.326;6.472;2024-03-08T14:22:04;9.50;89.20
52016;DHT22;38032;53.326;6.472;2024-03-08T14:24:31;9.50;88.10
52016;DHT22;38032;53.326;6.472;2024-03-08T14:26:57;9.50;88.10
52016;DHT22;38032;53.326;6.472;2024-03-08T14:29:25;9.40;87.80
52016;DHT22;38032;53.326;6.472;2024-03-08T14:31:55;9.50;87.60
52016;DHT22;38032;53.326;6.472;2024-03-08T14:34:25;9.40;86.90
52016;DHT22;38032;53.326;6.472;2024-03-08T14:36:53;9.40;87.30
52016;DHT22;38032;53.326;6.472;2024-03-08T14:39:19;9.40;87.70
52016;DHT22;38032;53.326;6.472;2024-03-08T14:41:48;9.40;87.50
52016;DHT22;38032;53.326;6.472;2024-03-08T14:44:14;9.30;86.90
52016;DHT22;38032;53.326;6.472;2024-03-08T14:46:40;9.30;87.10
52016;DHT22;38032;53.326;6.472;2024-03-08T14:49:07;9.30;87.90
52016;DHT22;38032;53.326;6.472;2024-03-08T14:51:33;9.20;88.30
52016;DHT22;38032;53.326;6.472;2024-03-08T14:54:00;9.20;88.00
52016;DHT22;38032;53.326;6.472;2024-03-08T14:56:26;9.20;88.10
52016;DHT22;38032;53.326;6.472;2024-03-08T14:58:53;9.20;88.30
52016;DHT22;38032;53.326;6.472;2024-03-08T15:01:19;9.20;87.90
52016;DHT22;38032;53.326;6.472;2024-03-08T15:03:50;9.10;88.30
52016;DHT22;38032;53.326;6.472;2024-03-08T15:06:16;9.10;88.90
52016;DHT22;38032;53.326;6.472;2024-03-08T15:08:46;9.10;88.90
52016;DHT22;38032;53.326;6.472;2024-03-08T15:11:13;9.00;88.50
52016;DHT22;38032;53.326;6.472;2024-03-08T15:13:47;9.00;88.70
52016;DHT22;38032;53.326;6.472;2024-03-08T15:16:17;9.00;88.80
52016;DHT22;38032;53.326;6.472;2024-03-08T15:18:45;9.00;88.50
52016;DHT22;38032;53.326;6.472;2024-03-08T15:21:14;9.00;88.90
52016;DHT22;38032;53.326;6.472;2024-03-08T15:23:46;9.00;89.30
52016;DHT22;38032;53.326;6.472;2024-03-08T15:26:16;9.00;89.70
52016;DHT22;38032;53.326;6.472;2024-03-08T15:28:43;8.90;89.40
52016;DHT22;38032;53.326;6.472;2024-03-08T15:31:11;9.00;89.40
52016;DHT22;38032;53.326;6.472;2024-03-08T15:33:39;8.90;89.60
52016;DHT22;38032;53.326;6.472;2024-03-08T15:36:25;8.80;89.60
52016;DHT22;38032;53.326;6.472;2024-03-08T15:38:54;8.80;90.20
52016;DHT22;38032;53.326;6.472;2024-03-08T15:41:20;8.80;90.10
52016;DHT22;38032;53.326;6.472;2024-03-08T15:43:46;8.70;89.70
52016;DHT22;38032;53.326;6.472;2024-03-08T15:46:14;8.70;89.30
52016;DHT22;38032;53.326;6.472;2024-03-08T15:48:41;8.60;89.10